Terminal Aerodrome Forecast
Issued by NWS

Home | Current Version | Previous Version | Text Only | Print | Product List | Glossary On
Versions: 1 2 3 4 5 6 7 8 9 10 11 12 13 14 15 16 17 18 19 20 21
000
FTUS44 KEPZ 171140
TAFDMN
TAF
KDMN 171140Z 1712/1812 07007KT P6SM SCT060 BKN120
     FM171500 06007KT P6SM FEW020 SCT050 BKN100
     FM172000 09005KT P6SM VCSH BKN060 BKN110
     FM180400 25005KT P6SM SCT060 BKN110=

USA.gov is the U.S. government's official web portal to all federal, state and local government web resources and services.